createdAt,value
2023-04-25T00:01:41.562Z,12.12
2023-04-25T00:04:46.320Z,12.06
2023-04-25T00:07:51.273Z,12.04
2023-04-25T00:10:55.151Z,12.05
2023-04-25T00:13:59.093Z,12.08
2023-04-25T00:17:04.033Z,12.07
2023-04-25T00:20:10.740Z,11.98
2023-04-25T00:23:19.598Z,11.90
2023-04-25T00:26:23.430Z,11.93
2023-04-25T00:29:27.013Z,12.00
2023-04-25T00:32:31.731Z,11.91
2023-04-25T00:35:35.895Z,11.98
2023-04-25T00:38:39.720Z,11.97
2023-04-25T00:41:44.010Z,12.00
2023-04-25T00:44:48.770Z,11.91
2023-04-25T00:47:52.522Z,11.98
2023-04-25T00:50:59.230Z,11.85
2023-04-25T00:54:02.966Z,11.87
2023-04-25T00:57:06.587Z,11.87
2023-04-25T01:00:11.287Z,11.90
2023-04-25T01:03:17.381Z,11.88
2023-04-25T01:06:20.857Z,11.75
2023-04-25T01:09:24.915Z,11.74
2023-04-25T01:12:28.097Z,11.83
2023-04-25T01:15:31.550Z,11.77
2023-04-25T01:18:35.009Z,11.88
2023-04-25T01:21:38.229Z,11.77
2023-04-25T01:24:42.583Z,11.76
2023-04-25T01:27:47.220Z,11.79
2023-04-25T01:30:51.841Z,11.74
2023-04-25T01:33:55.715Z,11.68
2023-04-25T01:37:02.855Z,11.78
2023-04-25T01:40:07.314Z,11.71
2023-04-25T01:43:13.158Z,11.66
2023-04-25T01:46:18.026Z,11.60
2023-04-25T01:49:21.611Z,11.62
2023-04-25T01:52:26.352Z,11.65
2023-04-25T01:55:30.266Z,11.64
2023-04-25T01:58:42.298Z,11.57
2023-04-25T02:02:15.682Z,11.64
2023-04-25T02:05:19.513Z,11.53
2023-04-25T02:08:24.104Z,11.61
2023-04-25T02:11:27.615Z,11.43
2023-04-25T02:14:45.674Z,11.43
2023-04-25T02:17:54.066Z,11.47
2023-04-25T02:20:57.754Z,11.45
2023-04-25T02:24:01.281Z,11.40
2023-04-25T02:27:06.940Z,11.48
2023-04-25T02:30:12.446Z,11.42
2023-04-25T02:33:20.044Z,11.50
2023-04-25T02:36:24.007Z,11.36
2023-04-25T02:39:28.607Z,11.40
2023-04-25T02:42:33.505Z,11.44
2023-04-25T02:45:36.758Z,11.35
2023-04-25T02:48:40.281Z,11.32
2023-04-25T02:51:43.422Z,11.33
2023-04-25T02:54:46.581Z,11.29
2023-04-25T02:57:49.690Z,11.17
2023-04-25T03:01:03.433Z,11.20
2023-04-25T03:04:06.706Z,11.15
2023-04-25T03:07:10.189Z,11.24
2023-04-25T03:10:13.998Z,11.15
2023-04-25T03:13:17.928Z,11.24
2023-04-25T03:16:21.629Z,11.26
2023-04-25T03:19:24.917Z,11.23
2023-04-25T03:22:28.823Z,11.10
2023-04-25T03:25:32.695Z,11.06
2023-04-25T03:28:35.941Z,11.07
2023-04-25T03:31:39.473Z,11.10
2023-04-25T03:34:42.917Z,11.03
2023-04-25T03:37:46.730Z,11.02
2023-04-25T03:40:57.354Z,10.91
2023-04-25T03:44:22.531Z,11.07
2023-04-25T03:47:26.098Z,11.03
2023-04-25T03:50:30.564Z,11.01
2023-04-25T03:53:34.126Z,11.00
2023-04-25T03:56:57.106Z,10.92
2023-04-25T04:00:05.432Z,10.99
2023-04-25T04:03:16.924Z,10.91
2023-04-25T04:06:22.039Z,10.91
2023-04-25T04:09:32.193Z,10.93
2023-04-25T04:12:37.938Z,10.95
2023-04-25T04:15:41.424Z,10.93
2023-04-25T04:18:44.847Z,10.87
2023-04-25T04:21:49.866Z,10.97
2023-04-25T04:24:53.954Z,11.02
2023-04-25T04:28:08.334Z,10.92
2023-04-25T04:31:31.314Z,11.03
2023-04-25T04:34:36.759Z,10.96
2023-04-25T04:37:41.235Z,10.92
2023-04-25T04:40:48.961Z,11.01
2023-04-25T04:44:10.055Z,10.94
2023-04-25T04:47:24.819Z,10.93
2023-04-25T04:50:47.371Z,10.97
2023-04-25T04:54:20.120Z,10.95
2023-04-25T04:57:43.487Z,11.14
2023-04-25T05:01:07.313Z,11.08
2023-04-25T05:04:33.437Z,11.08
2023-04-25T05:07:36.615Z,11.04
2023-04-25T05:10:53.693Z,11.01
2023-04-25T05:14:08.549Z,11.18
2023-04-25T05:17:33.915Z,11.13
2023-04-25T05:20:52.738Z,11.23
2023-04-25T05:24:22.734Z,11.24
2023-04-25T05:28:04.769Z,11.28
2023-04-25T05:31:25.111Z,11.26
2023-04-25T05:34:38.909Z,11.36
2023-04-25T05:37:48.495Z,11.31
2023-04-25T05:40:51.905Z,11.35
2023-04-25T05:44:17.142Z,11.42
2023-04-25T05:47:34.467Z,11.42
2023-04-25T05:50:52.950Z,11.42
2023-04-25T05:54:14.806Z,11.42
2023-04-25T05:57:22.374Z,11.59
2023-04-25T06:00:26.324Z,11.65
2023-04-25T06:03:29.834Z,11.62
2023-04-25T06:06:35.317Z,11.60
2023-04-25T06:09:41.900Z,11.65
2023-04-25T06:12:46.361Z,11.74
2023-04-25T06:15:51.789Z,11.91
2023-04-25T06:18:55.910Z,11.94
2023-04-25T06:22:00.010Z,11.99
2023-04-25T06:25:05.564Z,12.12
2023-04-25T06:28:10.080Z,12.26
2023-04-25T06:31:13.833Z,12.37
2023-04-25T06:34:19.476Z,12.67
2023-04-25T06:37:23.147Z,12.94
2023-04-25T06:40:28.232Z,12.92
2023-04-25T06:43:34.365Z,13.52
2023-04-25T06:46:41.069Z,13.87
2023-04-25T06:49:44.785Z,14.13
2023-04-25T06:52:48.404Z,14.37
2023-04-25T06:55:52.064Z,14.39
2023-04-25T06:59:02.128Z,14.42
2023-04-25T07:02:15.220Z,14.19
2023-04-25T07:05:19.777Z,14.24
2023-04-25T07:08:23.370Z,14.15
2023-04-25T07:11:27.633Z,14.27
2023-04-25T07:17:50.206Z,14.85
2023-04-25T07:20:54.005Z,14.94
2023-04-25T07:23:57.614Z,14.92
2023-04-25T07:27:07.604Z,14.61
2023-04-25T07:30:49.675Z,14.51
2023-04-25T07:33:54.008Z,14.64
2023-04-25T07:36:57.345Z,14.18
2023-04-25T07:40:05.246Z,13.68
2023-04-25T07:43:09.356Z,13.81
2023-04-25T07:46:30.142Z,13.79
2023-04-25T07:49:35.129Z,13.86
2023-04-25T07:52:39.159Z,13.98
2023-04-25T07:55:54.394Z,13.83
2023-04-25T07:58:59.792Z,13.97
2023-04-25T08:02:03.749Z,14.28
2023-04-25T08:05:09.836Z,14.34
2023-04-25T08:08:13.437Z,14.58
2023-04-25T08:11:18.190Z,14.54
2023-04-25T08:14:22.367Z,14.35
2023-04-25T08:17:26.269Z,14.40
2023-04-25T08:20:31.802Z,14.29
2023-04-25T08:23:38.387Z,14.76
2023-04-25T08:26:50.909Z,14.99
2023-04-25T08:30:00.511Z,15.43
2023-04-25T08:33:04.161Z,15.16
2023-04-25T08:36:39.244Z,15.70
2023-04-25T08:39:59.720Z,15.75
2023-04-25T08:43:32.399Z,16.03
2023-04-25T08:46:36.211Z,16.07
2023-04-25T08:49:50.338Z,16.45
2023-04-25T08:52:56.579Z,16.77
2023-04-25T08:56:03.058Z,16.87
2023-04-25T08:59:12.605Z,16.19
2023-04-25T09:02:19.189Z,15.64
2023-04-25T09:05:26.428Z,15.75
2023-04-25T09:08:31.214Z,16.06
2023-04-25T09:11:37.117Z,15.85
2023-04-25T09:15:04.458Z,15.96
2023-04-25T09:18:48.472Z,16.55
2023-04-25T09:21:56.729Z,17.01
2023-04-25T09:25:13.414Z,16.84
2023-04-25T09:28:31.010Z,16.44
2023-04-25T09:36:57.048Z,16.55
2023-04-25T09:40:31.581Z,16.90
2023-04-25T09:43:47.924Z,16.58
2023-04-25T09:46:54.959Z,16.75
2023-04-25T09:50:01.325Z,17.23
2023-04-25T09:53:06.808Z,17.61
2023-04-25T09:56:37.136Z,18.04
2023-04-25T09:59:48.110Z,18.43
2023-04-25T10:02:52.590Z,17.57
2023-04-25T10:06:21.587Z,18.18
2023-04-25T10:09:30.119Z,18.38
2023-04-25T10:12:35.143Z,19.12
2023-04-25T10:15:40.321Z,19.05
2023-04-25T10:18:44.118Z,19.06
2023-04-25T10:21:53.397Z,19.32
2023-04-25T10:24:58.075Z,19.24
2023-04-25T10:28:03.325Z,19.52
2023-04-25T10:31:09.821Z,19.72
2023-04-25T10:34:14.923Z,19.38
2023-04-25T10:37:20.135Z,19.56
2023-04-25T10:40:24.460Z,19.69
2023-04-25T10:43:39.760Z,19.43
2023-04-25T10:46:45.940Z,19.09
2023-04-25T10:49:52.245Z,19.41
2023-04-25T10:52:55.833Z,18.64
2023-04-25T10:55:59.158Z,18.15
2023-04-25T10:59:16.402Z,17.60
2023-04-25T11:02:20.011Z,18.10
2023-04-25T11:05:51.086Z,18.54
2023-04-25T11:08:58.745Z,17.94
2023-04-25T11:12:02.198Z,18.80
2023-04-25T11:15:07.592Z,19.61
2023-04-25T11:18:11.233Z,19.84
2023-04-25T11:21:14.955Z,19.71
2023-04-25T11:24:19.157Z,20.33
2023-04-25T11:27:23.444Z,19.63
2023-04-25T11:30:27.985Z,20.19
2023-04-25T11:33:31.515Z,20.98
2023-04-25T11:36:35.239Z,21.05
2023-04-25T11:39:40.704Z,21.19
2023-04-25T11:42:48.321Z,20.92
2023-04-25T11:45:52.905Z,21.07
2023-04-25T11:48:58.484Z,20.88
2023-04-25T11:52:01.767Z,20.55
2023-04-25T11:55:19.572Z,18.81
2023-04-25T11:58:23.203Z,18.20
2023-04-25T12:01:38.162Z,17.67
2023-04-25T12:04:42.550Z,17.23
2023-04-25T12:08:19.514Z,17.14
2023-04-25T12:11:23.112Z,18.57
2023-04-25T12:14:28.802Z,18.78
2023-04-25T12:17:32.221Z,18.29
2023-04-25T12:20:36.728Z,18.02
2023-04-25T12:23:41.286Z,18.71
2023-04-25T12:26:53.127Z,19.54
2023-04-25T12:29:57.799Z,19.94
2023-04-25T12:33:00.860Z,20.13
2023-04-25T12:36:11.840Z,20.50
2023-04-25T12:39:23.222Z,20.79
2023-04-25T12:42:26.553Z,19.77
2023-04-25T12:45:29.864Z,18.92
2023-04-25T12:48:34.053Z,19.02
2023-04-25T12:51:37.636Z,19.05
2023-04-25T12:54:41.348Z,18.29
2023-04-25T12:57:44.763Z,18.62
2023-04-25T13:00:48.949Z,18.66
2023-04-25T13:03:52.704Z,17.81
2023-04-25T13:06:56.373Z,17.90
2023-04-25T13:10:00.284Z,18.32
2023-04-25T13:13:05.659Z,18.72
2023-04-25T13:16:09.886Z,18.14
2023-04-25T13:19:13.805Z,18.01
2023-04-25T13:22:18.182Z,18.69
2023-04-25T13:25:22.994Z,19.22
2023-04-25T13:28:26.647Z,18.68
2023-04-25T13:31:29.794Z,18.13
2023-04-25T13:34:33.447Z,17.82
2023-04-25T13:37:36.939Z,17.38
2023-04-25T13:40:40.513Z,17.28
2023-04-25T13:43:43.742Z,17.64
2023-04-25T13:46:47.893Z,17.55
2023-04-25T13:49:51.643Z,17.53
2023-04-25T13:52:54.642Z,17.72
2023-04-25T13:55:57.795Z,17.94
2023-04-25T13:59:00.821Z,18.04
2023-04-25T14:02:04.634Z,17.96
2023-04-25T14:05:09.100Z,17.85
2023-04-25T14:08:12.503Z,17.67
2023-04-25T14:11:15.563Z,17.27
2023-04-25T14:14:18.499Z,16.78
2023-04-25T14:17:21.984Z,16.39
2023-04-25T14:20:25.735Z,16.29
2023-04-25T14:23:28.976Z,16.62
2023-04-25T14:26:32.475Z,16.76
2023-04-25T14:29:36.271Z,16.55
2023-04-25T14:32:39.700Z,16.06
2023-04-25T14:35:43.195Z,16.17
2023-04-25T14:38:46.925Z,16.19
2023-04-25T14:41:50.091Z,16.25
2023-04-25T14:44:53.507Z,16.09
2023-04-25T14:47:57.283Z,16.21
2023-04-25T14:51:03.802Z,16.25
2023-04-25T14:54:07.453Z,16.47
2023-04-25T14:57:10.539Z,16.62
2023-04-25T15:00:17.582Z,16.44
2023-04-25T15:03:20.990Z,16.48
2023-04-25T15:06:27.508Z,16.06
2023-04-25T15:09:31.119Z,15.93
2023-04-25T15:12:34.445Z,15.86
2023-04-25T15:15:37.556Z,15.97
2023-04-25T15:18:41.972Z,16.02
2023-04-25T15:21:45.225Z,15.89
2023-04-25T15:24:48.431Z,15.69
2023-04-25T15:27:52.926Z,15.84
2023-04-25T15:30:56.497Z,15.91
2023-04-25T15:34:00.253Z,16.12
2023-04-25T15:37:03.495Z,16.07
2023-04-25T15:40:13.958Z,16.11
2023-04-25T15:43:17.432Z,16.06
2023-04-25T15:46:22.096Z,16.17
2023-04-25T15:49:25.168Z,16.06
2023-04-25T15:52:28.546Z,16.04
2023-04-25T15:55:32.162Z,16.17
2023-04-25T15:58:36.402Z,16.01
2023-04-25T16:01:40.524Z,16.13
2023-04-25T16:04:46.736Z,16.00
2023-04-25T16:07:50.720Z,15.96
2023-04-25T16:10:54.212Z,15.72
2023-04-25T16:13:57.763Z,15.42
2023-04-25T16:17:00.732Z,15.17
2023-04-25T16:20:10.036Z,15.25
2023-04-25T16:23:13.489Z,15.14
2023-04-25T16:26:16.469Z,15.07
2023-04-25T16:29:19.586Z,14.98
2023-04-25T16:32:22.603Z,14.80
2023-04-25T16:35:25.957Z,14.69
2023-04-25T16:38:29.339Z,14.68
2023-04-25T16:41:32.928Z,14.65
2023-04-25T16:44:36.778Z,14.61
2023-04-25T16:47:40.326Z,14.46
2023-04-25T16:50:43.596Z,14.30
2023-04-25T16:53:48.681Z,14.36
2023-04-25T16:56:52.714Z,14.31
2023-04-25T16:59:56.808Z,14.30
2023-04-25T17:03:00.353Z,14.22
2023-04-25T17:06:04.262Z,14.15
2023-04-25T17:09:08.289Z,14.01
2023-04-25T17:12:11.380Z,14.04
2023-04-25T17:15:14.578Z,14.03
2023-04-25T17:18:18.032Z,13.94
2023-04-25T17:21:21.350Z,13.84
2023-04-25T17:24:24.780Z,13.81
2023-04-25T17:27:30.618Z,13.65
2023-04-25T17:30:34.556Z,13.51
2023-04-25T17:33:37.788Z,13.49
2023-04-25T17:36:41.240Z,13.46
2023-04-25T17:39:45.167Z,13.35
2023-04-25T17:42:48.612Z,13.35
2023-04-25T17:45:51.977Z,13.25
2023-04-25T17:48:58.388Z,13.13
2023-04-25T17:52:02.223Z,12.92
2023-04-25T17:55:07.247Z,12.88
2023-04-25T17:58:14.092Z,12.82
2023-04-25T18:01:17.649Z,12.71
2023-04-25T18:04:22.053Z,12.52
2023-04-25T18:07:25.168Z,12.38
2023-04-25T18:10:28.378Z,12.37
2023-04-25T18:13:32.853Z,12.32
2023-04-25T18:16:36.077Z,12.31
2023-04-25T18:19:40.002Z,12.20
2023-04-25T18:22:45.050Z,12.18
2023-04-25T18:25:52.118Z,12.14
2023-04-25T18:28:55.888Z,12.01
2023-04-25T18:31:59.639Z,12.00
2023-04-25T18:35:03.739Z,11.98
2023-04-25T18:38:06.962Z,11.84
2023-04-25T18:41:27.439Z,11.88
2023-04-25T18:44:40.201Z,11.80
2023-04-25T18:47:44.042Z,11.81
2023-04-25T18:50:47.701Z,11.74
2023-04-25T18:53:52.235Z,11.59
2023-04-25T18:56:57.648Z,11.40
2023-04-25T19:00:05.323Z,11.46
2023-04-25T19:03:08.995Z,11.45
2023-04-25T19:06:12.505Z,11.37
2023-04-25T19:09:15.738Z,11.44
2023-04-25T19:12:18.922Z,11.35
2023-04-25T19:15:22.744Z,11.41
2023-04-25T19:18:26.104Z,11.46
2023-04-25T19:21:29.890Z,11.49
2023-04-25T19:24:34.530Z,11.46
2023-04-25T19:27:38.843Z,11.58
2023-04-25T19:30:42.487Z,11.51
2023-04-25T19:33:46.951Z,11.58
2023-04-25T19:36:52.802Z,11.58
2023-04-25T19:39:56.621Z,11.55
2023-04-25T19:42:59.795Z,11.45
2023-04-25T19:46:03.596Z,11.42
2023-04-25T19:49:07.864Z,11.32
2023-04-25T19:52:15.074Z,11.36
2023-04-25T19:55:18.854Z,11.31
2023-04-25T19:58:22.316Z,11.17
2023-04-25T20:01:26.416Z,11.10
2023-04-25T20:04:29.868Z,11.02
2023-04-25T20:07:33.189Z,11.08
2023-04-25T20:10:37.049Z,11.08
2023-04-25T20:13:40.696Z,11.16
2023-04-25T20:16:43.810Z,11.00
2023-04-25T20:19:47.631Z,10.94
2023-04-25T20:22:51.856Z,11.06
2023-04-25T20:25:55.018Z,10.99
2023-04-25T20:28:58.905Z,10.90
2023-04-25T20:32:03.583Z,10.91
2023-04-25T20:35:09.075Z,10.69
2023-04-25T20:38:12.550Z,10.68
2023-04-25T20:41:16.150Z,10.68
2023-04-25T20:44:22.806Z,10.65
2023-04-25T20:47:25.826Z,10.56
2023-04-25T20:50:30.426Z,10.57
2023-04-25T20:53:35.033Z,10.52
2023-04-25T20:56:38.009Z,10.37
2023-04-25T20:59:41.103Z,10.38
2023-04-25T21:02:47.806Z,10.28
2023-04-25T21:05:51.669Z,10.22
2023-04-25T21:08:54.917Z,10.19
2023-04-25T21:11:57.923Z,10.24
2023-04-25T21:15:01.540Z,10.27
2023-04-25T21:18:05.045Z,10.31
2023-04-25T21:21:08.170Z,10.15
2023-04-25T21:24:11.791Z,10.23
2023-04-25T21:27:14.827Z,10.22
2023-04-25T21:30:23.276Z,10.20
2023-04-25T21:33:26.979Z,10.24
2023-04-25T21:36:30.118Z,10.06
2023-04-25T21:39:33.410Z,10.12
2023-04-25T21:42:37.116Z,9.96
2023-04-25T21:45:53.711Z,9.98
2023-04-25T21:49:03.564Z,10.01
2023-04-25T21:52:06.789Z,10.01
2023-04-25T21:55:11.057Z,9.94
2023-04-25T21:58:14.454Z,9.92
2023-04-25T22:01:17.746Z,10.06
2023-04-25T22:04:21.702Z,10.07
2023-04-25T22:07:24.852Z,10.00
2023-04-25T22:10:28.492Z,9.93
2023-04-25T22:13:33.504Z,9.77
2023-04-25T22:16:37.968Z,9.71
2023-04-25T22:19:41.607Z,9.72
2023-04-25T22:22:44.906Z,9.74
2023-04-25T22:25:47.989Z,9.74
2023-04-25T22:28:51.752Z,9.69
2023-04-25T22:31:55.282Z,9.73
2023-04-25T22:34:58.395Z,9.61
2023-04-25T22:38:01.788Z,9.54
2023-04-25T22:41:04.965Z,9.60
2023-04-25T22:44:08.301Z,9.61
2023-04-25T22:47:11.402Z,9.54
2023-04-25T22:50:17.168Z,9.52
2023-04-25T22:53:20.972Z,9.41
2023-04-25T22:56:24.925Z,9.47
2023-04-25T22:59:28.596Z,9.53
2023-04-25T23:02:32.437Z,9.45
2023-04-25T23:05:36.040Z,9.52
2023-04-25T23:08:39.604Z,9.45
2023-04-25T23:11:42.934Z,9.54
2023-04-25T23:14:52.888Z,9.56
2023-04-25T23:17:57.213Z,9.52
2023-04-25T23:21:02.170Z,9.56
2023-04-25T23:24:06.137Z,9.50
2023-04-25T23:27:09.368Z,9.48
2023-04-25T23:30:12.568Z,9.55
2023-04-25T23:33:15.928Z,9.44
2023-04-25T23:36:21.196Z,9.46
2023-04-25T23:39:24.617Z,9.49
2023-04-25T23:42:27.606Z,9.38
2023-04-25T23:45:30.814Z,9.46
2023-04-25T23:48:33.721Z,9.36
2023-04-25T23:51:37.152Z,9.40
2023-04-25T23:54:40.435Z,9.39
2023-04-25T23:57:44.615Z,9.37
